sensor_id;sensor_type;location;lat;lon;timestamp;P1;durP1;ratioP1;P2;durP2;ratioP2
76752;SDS011;65687;51.308;16.916;2023-03-14T00:00:24;10.60;;;5.30;;
76752;SDS011;65687;51.308;16.916;2023-03-14T00:05:45;7.60;;;4.90;;
76752;SDS011;65687;51.308;16.916;2023-03-14T00:10:45;8.60;;;4.00;;
76752;SDS011;65687;51.308;16.916;2023-03-14T00:15:46;7.30;;;4.30;;
76752;SDS011;65687;51.308;16.916;2023-03-14T00:20:47;6.20;;;3.60;;
76752;SDS011;65687;51.308;16.916;2023-03-14T00:25:48;8.60;;;5.00;;
76752;SDS011;65687;51.308;16.916;2023-03-14T00:30:49;9.10;;;5.20;;
76752;SDS011;65687;51.308;16.916;2023-03-14T00:35:54;7.70;;;4.50;;
76752;SDS011;65687;51.308;16.916;2023-03-14T00:40:55;7.40;;;3.70;;
76752;SDS011;65687;51.308;16.916;2023-03-14T00:45:56;7.50;;;4.20;;
76752;SDS011;65687;51.308;16.916;2023-03-14T00:50:57;8.20;;;4.60;;
76752;SDS011;65687;51.308;16.916;2023-03-14T00:56:01;10.00;;;5.40;;
76752;SDS011;65687;51.308;16.916;2023-03-14T01:01:08;8.10;;;4.70;;
76752;SDS011;65687;51.308;16.916;2023-03-14T01:06:15;8.00;;;4.30;;
76752;SDS011;65687;51.308;16.916;2023-03-14T01:11:19;8.50;;;4.30;;
76752;SDS011;65687;51.308;16.916;2023-03-14T01:16:26;6.90;;;3.90;;
76752;SDS011;65687;51.308;16.916;2023-03-14T01:21:29;7.50;;;4.20;;
76752;SDS011;65687;51.308;16.916;2023-03-14T01:26:33;4.90;;;3.00;;
76752;SDS011;65687;51.308;16.916;2023-03-14T01:31:35;6.20;;;3.60;;
76752;SDS011;65687;51.308;16.916;2023-03-14T01:36:35;8.30;;;4.10;;
76752;SDS011;65687;51.308;16.916;2023-03-14T01:41:37;9.10;;;4.60;;
76752;SDS011;65687;51.308;16.916;2023-03-14T01:46:44;8.40;;;5.90;;
76752;SDS011;65687;51.308;16.916;2023-03-14T01:56:54;4.60;;;3.50;;
76752;SDS011;65687;51.308;16.916;2023-03-14T02:01:59;6.10;;;4.10;;
76752;SDS011;65687;51.308;16.916;2023-03-14T02:07:07;5.60;;;3.90;;
76752;SDS011;65687;51.308;16.916;2023-03-14T02:12:14;7.20;;;5.10;;
76752;SDS011;65687;51.308;16.916;2023-03-14T02:17:17;8.30;;;4.80;;
76752;SDS011;65687;51.308;16.916;2023-03-14T02:22:19;7.30;;;5.90;;
76752;SDS011;65687;51.308;16.916;2023-03-14T02:27:21;6.30;;;4.60;;
76752;SDS011;65687;51.308;16.916;2023-03-14T02:32:22;5.20;;;3.20;;
76752;SDS011;65687;51.308;16.916;2023-03-14T02:37:33;7.90;;;4.40;;
76752;SDS011;65687;51.308;16.916;2023-03-14T02:42:37;6.80;;;3.70;;
76752;SDS011;65687;51.308;16.916;2023-03-14T02:47:39;5.70;;;4.00;;
76752;SDS011;65687;51.308;16.916;2023-03-14T02:52:44;8.40;;;3.80;;
76752;SDS011;65687;51.308;16.916;2023-03-14T02:57:45;8.20;;;3.90;;
76752;SDS011;65687;51.308;16.916;2023-03-14T03:02:46;8.20;;;4.20;;
76752;SDS011;65687;51.308;16.916;2023-03-14T03:07:47;6.10;;;3.80;;
76752;SDS011;65687;51.308;16.916;2023-03-14T03:12:48;6.30;;;4.10;;
76752;SDS011;65687;51.308;16.916;2023-03-14T03:17:48;5.20;;;3.90;;
76752;SDS011;65687;51.308;16.916;2023-03-14T03:22:49;7.30;;;4.10;;
76752;SDS011;65687;51.308;16.916;2023-03-14T03:27:50;7.10;;;3.90;;
76752;SDS011;65687;51.308;16.916;2023-03-14T03:32:51;4.80;;;4.00;;
76752;SDS011;65687;51.308;16.916;2023-03-14T03:37:52;6.50;;;4.10;;
76752;SDS011;65687;51.308;16.916;2023-03-14T03:42:52;6.50;;;3.60;;
76752;SDS011;65687;51.308;16.916;2023-03-14T03:47:53;5.20;;;3.30;;
76752;SDS011;65687;51.308;16.916;2023-03-14T03:52:54;4.60;;;4.10;;
76752;SDS011;65687;51.308;16.916;2023-03-14T03:57:55;7.20;;;3.70;;
76752;SDS011;65687;51.308;16.916;2023-03-14T04:02:56;6.50;;;3.90;;
76752;SDS011;65687;51.308;16.916;2023-03-14T04:07:57;4.70;;;2.50;;
76752;SDS011;65687;51.308;16.916;2023-03-14T04:12:58;5.60;;;3.30;;
76752;SDS011;65687;51.308;16.916;2023-03-14T04:17:59;6.40;;;3.20;;
76752;SDS011;65687;51.308;16.916;2023-03-14T04:23:00;6.80;;;3.80;;
76752;SDS011;65687;51.308;16.916;2023-03-14T04:28:01;8.70;;;4.10;;
76752;SDS011;65687;51.308;16.916;2023-03-14T04:33:02;7.10;;;4.10;;
76752;SDS011;65687;51.308;16.916;2023-03-14T04:38:03;4.60;;;2.90;;
76752;SDS011;65687;51.308;16.916;2023-03-14T04:43:03;9.70;;;4.50;;
76752;SDS011;65687;51.308;16.916;2023-03-14T04:48:04;5.30;;;3.20;;
76752;SDS011;65687;51.308;16.916;2023-03-14T04:53:05;8.60;;;4.30;;
76752;SDS011;65687;51.308;16.916;2023-03-14T04:58:06;10.50;;;5.50;;
76752;SDS011;65687;51.308;16.916;2023-03-14T05:03:07;9.90;;;5.10;;
76752;SDS011;65687;51.308;16.916;2023-03-14T05:08:08;17.80;;;8.30;;
76752;SDS011;65687;51.308;16.916;2023-03-14T05:13:09;26.30;;;10.00;;
76752;SDS011;65687;51.308;16.916;2023-03-14T05:18:10;18.80;;;7.90;;
76752;SDS011;65687;51.308;16.916;2023-03-14T05:23:11;9.80;;;5.30;;
76752;SDS011;65687;51.308;16.916;2023-03-14T05:28:12;9.70;;;5.10;;
76752;SDS011;65687;51.308;16.916;2023-03-14T05:33:13;5.20;;;3.60;;
76752;SDS011;65687;51.308;16.916;2023-03-14T05:38:14;5.30;;;3.70;;
76752;SDS011;65687;51.308;16.916;2023-03-14T05:43:14;7.90;;;3.90;;
76752;SDS011;65687;51.308;16.916;2023-03-14T05:48:16;27.30;;;10.80;;
76752;SDS011;65687;51.308;16.916;2023-03-14T05:53:17;19.80;;;8.00;;
76752;SDS011;65687;51.308;16.916;2023-03-14T05:58:18;21.10;;;8.60;;
76752;SDS011;65687;51.308;16.916;2023-03-14T06:03:19;15.50;;;7.70;;
76752;SDS011;65687;51.308;16.916;2023-03-14T06:08:20;15.40;;;6.70;;
76752;SDS011;65687;51.308;16.916;2023-03-14T06:13:21;14.70;;;7.50;;
76752;SDS011;65687;51.308;16.916;2023-03-14T06:18:22;10.70;;;6.20;;
76752;SDS011;65687;51.308;16.916;2023-03-14T06:23:23;10.20;;;4.80;;
76752;SDS011;65687;51.308;16.916;2023-03-14T06:28:24;18.80;;;8.00;;
76752;SDS011;65687;51.308;16.916;2023-03-14T06:33:27;16.70;;;7.50;;
76752;SDS011;65687;51.308;16.916;2023-03-14T06:38:28;9.80;;;5.50;;
76752;SDS011;65687;51.308;16.916;2023-03-14T06:43:29;7.60;;;4.60;;
76752;SDS011;65687;51.308;16.916;2023-03-14T06:48:30;9.40;;;4.80;;
76752;SDS011;65687;51.308;16.916;2023-03-14T06:53:30;9.60;;;4.20;;
76752;SDS011;65687;51.308;16.916;2023-03-14T06:58:31;10.20;;;5.30;;
76752;SDS011;65687;51.308;16.916;2023-03-14T07:03:32;6.60;;;4.30;;
76752;SDS011;65687;51.308;16.916;2023-03-14T07:08:33;8.70;;;5.00;;
76752;SDS011;65687;51.308;16.916;2023-03-14T07:13:33;10.50;;;5.60;;
76752;SDS011;65687;51.308;16.916;2023-03-14T07:18:34;9.60;;;5.80;;
76752;SDS011;65687;51.308;16.916;2023-03-14T07:23:35;10.50;;;6.50;;
76752;SDS011;65687;51.308;16.916;2023-03-14T07:28:36;10.60;;;5.70;;
76752;SDS011;65687;51.308;16.916;2023-03-14T07:33:37;9.40;;;5.30;;
76752;SDS011;65687;51.308;16.916;2023-03-14T07:38:38;10.40;;;6.30;;
76752;SDS011;65687;51.308;16.916;2023-03-14T07:43:39;10.50;;;6.00;;
76752;SDS011;65687;51.308;16.916;2023-03-14T07:48:40;8.60;;;4.70;;
76752;SDS011;65687;51.308;16.916;2023-03-14T07:53:41;26.10;;;14.00;;
76752;SDS011;65687;51.308;16.916;2023-03-14T07:58:43;7.60;;;4.90;;
76752;SDS011;65687;51.308;16.916;2023-03-14T08:03:44;35.10;;;20.60;;
76752;SDS011;65687;51.308;16.916;2023-03-14T08:08:45;11.30;;;7.90;;
76752;SDS011;65687;51.308;16.916;2023-03-14T08:13:46;19.30;;;12.70;;
76752;SDS011;65687;51.308;16.916;2023-03-14T08:18:50;18.70;;;11.30;;
76752;SDS011;65687;51.308;16.916;2023-03-14T08:23:50;10.30;;;5.80;;
76752;SDS011;65687;51.308;16.916;2023-03-14T08:28:51;10.60;;;6.80;;
76752;SDS011;65687;51.308;16.916;2023-03-14T08:33:52;9.90;;;7.50;;
76752;SDS011;65687;51.308;16.916;2023-03-14T08:38:53;8.90;;;5.70;;
76752;SDS011;65687;51.308;16.916;2023-03-14T08:43:54;10.30;;;7.70;;
76752;SDS011;65687;51.308;16.916;2023-03-14T08:48:55;7.70;;;6.20;;
76752;SDS011;65687;51.308;16.916;2023-03-14T08:53:56;6.30;;;4.40;;
76752;SDS011;65687;51.308;16.916;2023-03-14T08:58:57;18.70;;;10.20;;
76752;SDS011;65687;51.308;16.916;2023-03-14T09:03:58;13.30;;;6.40;;
76752;SDS011;65687;51.308;16.916;2023-03-14T09:08:58;7.30;;;4.00;;
76752;SDS011;65687;51.308;16.916;2023-03-14T09:13:59;8.40;;;5.00;;
76752;SDS011;65687;51.308;16.916;2023-03-14T09:19:00;8.20;;;4.80;;
76752;SDS011;65687;51.308;16.916;2023-03-14T09:24:01;7.70;;;4.40;;
76752;SDS011;65687;51.308;16.916;2023-03-14T09:29:02;7.60;;;5.50;;
76752;SDS011;65687;51.308;16.916;2023-03-14T09:34:04;6.10;;;3.80;;
76752;SDS011;65687;51.308;16.916;2023-03-14T09:39:05;7.50;;;4.40;;
76752;SDS011;65687;51.308;16.916;2023-03-14T09:44:19;6.20;;;4.20;;
76752;SDS011;65687;51.308;16.916;2023-03-14T09:59:36;6.80;;;3.50;;
76752;SDS011;65687;51.308;16.916;2023-03-14T10:04:38;10.30;;;4.90;;
76752;SDS011;65687;51.308;16.916;2023-03-14T10:09:45;8.90;;;5.70;;
76752;SDS011;65687;51.308;16.916;2023-03-14T10:14:50;7.10;;;5.10;;
76752;SDS011;65687;51.308;16.916;2023-03-14T10:19:53;15.20;;;10.50;;
76752;SDS011;65687;51.308;16.916;2023-03-14T10:25:03;7.10;;;4.20;;
76752;SDS011;65687;51.308;16.916;2023-03-14T10:30:13;6.40;;;4.80;;
76752;SDS011;65687;51.308;16.916;2023-03-14T10:35:46;10.50;;;6.90;;
76752;SDS011;65687;51.308;16.916;2023-03-14T10:40:56;10.60;;;6.10;;
76752;SDS011;65687;51.308;16.916;2023-03-14T10:46:00;10.80;;;7.10;;
76752;SDS011;65687;51.308;16.916;2023-03-14T10:56:21;12.70;;;8.00;;
76752;SDS011;65687;51.308;16.916;2023-03-14T11:01:37;8.70;;;5.30;;
76752;SDS011;65687;51.308;16.916;2023-03-14T11:11:54;11.50;;;7.60;;
76752;SDS011;65687;51.308;16.916;2023-03-14T11:17:15;25.20;;;15.30;;
76752;SDS011;65687;51.308;16.916;2023-03-14T11:23:08;9.50;;;5.90;;
76752;SDS011;65687;51.308;16.916;2023-03-14T11:33:27;8.60;;;5.30;;
76752;SDS011;65687;51.308;16.916;2023-03-14T11:38:46;8.00;;;5.70;;
76752;SDS011;65687;51.308;16.916;2023-03-14T11:43:53;6.10;;;4.00;;
76752;SDS011;65687;51.308;16.916;2023-03-14T11:49:01;7.00;;;4.10;;
76752;SDS011;65687;51.308;16.916;2023-03-14T11:54:26;6.80;;;4.00;;
76752;SDS011;65687;51.308;16.916;2023-03-14T12:10:02;9.50;;;6.70;;
76752;SDS011;65687;51.308;16.916;2023-03-14T12:15:04;8.60;;;5.10;;
76752;SDS011;65687;51.308;16.916;2023-03-14T12:25:18;9.00;;;6.50;;
76752;SDS011;65687;51.308;16.916;2023-03-14T12:30:34;8.60;;;5.60;;
76752;SDS011;65687;51.308;16.916;2023-03-14T12:35:41;17.60;;;9.10;;
76752;SDS011;65687;51.308;16.916;2023-03-14T12:46:21;6.50;;;3.40;;
76752;SDS011;65687;51.308;16.916;2023-03-14T12:51:56;5.60;;;3.10;;
76752;SDS011;65687;51.308;16.916;2023-03-14T12:57:03;16.50;;;9.30;;
76752;SDS011;65687;51.308;16.916;2023-03-14T13:07:10;5.00;;;3.60;;
76752;SDS011;65687;51.308;16.916;2023-03-14T13:12:34;4.50;;;3.10;;
76752;SDS011;65687;51.308;16.916;2023-03-14T13:17:39;8.00;;;5.00;;
76752;SDS011;65687;51.308;16.916;2023-03-14T13:22:46;7.30;;;4.00;;
76752;SDS011;65687;51.308;16.916;2023-03-14T13:27:48;6.30;;;4.20;;
76752;SDS011;65687;51.308;16.916;2023-03-14T13:32:51;6.80;;;4.00;;
76752;SDS011;65687;51.308;16.916;2023-03-14T13:37:54;6.90;;;3.50;;
76752;SDS011;65687;51.308;16.916;2023-03-14T13:43:17;8.00;;;4.40;;
76752;SDS011;65687;51.308;16.916;2023-03-14T13:48:21;7.60;;;4.50;;
76752;SDS011;65687;51.308;16.916;2023-03-14T13:53:25;7.20;;;3.90;;
76752;SDS011;65687;51.308;16.916;2023-03-14T13:58:27;7.10;;;4.20;;
76752;SDS011;65687;51.308;16.916;2023-03-14T14:03:30;8.10;;;5.70;;
76752;SDS011;65687;51.308;16.916;2023-03-14T14:08:33;9.80;;;5.70;;
76752;SDS011;65687;51.308;16.916;2023-03-14T14:13:34;5.70;;;3.90;;
76752;SDS011;65687;51.308;16.916;2023-03-14T14:18:36;11.10;;;7.20;;
76752;SDS011;65687;51.308;16.916;2023-03-14T14:23:37;6.70;;;5.00;;
76752;SDS011;65687;51.308;16.916;2023-03-14T14:28:39;11.00;;;7.60;;
76752;SDS011;65687;51.308;16.916;2023-03-14T14:33:45;10.20;;;6.50;;
76752;SDS011;65687;51.308;16.916;2023-03-14T14:38:58;7.80;;;5.10;;
76752;SDS011;65687;51.308;16.916;2023-03-14T14:44:00;12.20;;;8.50;;
76752;SDS011;65687;51.308;16.916;2023-03-14T14:49:04;14.20;;;8.50;;
76752;SDS011;65687;51.308;16.916;2023-03-14T14:54:10;37.30;;;23.00;;
76752;SDS011;65687;51.308;16.916;2023-03-14T14:59:21;59.80;;;41.90;;
76752;SDS011;65687;51.308;16.916;2023-03-14T15:04:29;8.60;;;6.00;;
76752;SDS011;65687;51.308;16.916;2023-03-14T15:09:31;5.30;;;3.40;;
76752;SDS011;65687;51.308;16.916;2023-03-14T15:14:32;4.50;;;2.70;;
76752;SDS011;65687;51.308;16.916;2023-03-14T15:19:33;4.80;;;2.70;;
76752;SDS011;65687;51.308;16.916;2023-03-14T15:24:34;4.10;;;2.40;;
76752;SDS011;65687;51.308;16.916;2023-03-14T15:29:35;2.70;;;1.80;;
76752;SDS011;65687;51.308;16.916;2023-03-14T15:34:37;4.10;;;2.00;;
76752;SDS011;65687;51.308;16.916;2023-03-14T15:39:38;9.80;;;5.90;;
76752;SDS011;65687;51.308;16.916;2023-03-14T15:44:39;5.90;;;4.00;;
76752;SDS011;65687;51.308;16.916;2023-03-14T15:49:40;6.50;;;3.60;;
76752;SDS011;65687;51.308;16.916;2023-03-14T15:54:41;7.90;;;5.10;;
76752;SDS011;65687;51.308;16.916;2023-03-14T15:59:42;6.10;;;4.20;;
76752;SDS011;65687;51.308;16.916;2023-03-14T16:04:43;6.90;;;3.60;;
76752;SDS011;65687;51.308;16.916;2023-03-14T16:09:44;5.80;;;2.90;;
76752;SDS011;65687;51.308;16.916;2023-03-14T16:14:46;7.90;;;3.80;;
76752;SDS011;65687;51.308;16.916;2023-03-14T16:19:48;6.70;;;3.80;;
76752;SDS011;65687;51.308;16.916;2023-03-14T16:24:48;10.40;;;4.80;;
76752;SDS011;65687;51.308;16.916;2023-03-14T16:29:49;20.90;;;9.10;;
76752;SDS011;65687;51.308;16.916;2023-03-14T16:34:50;17.30;;;9.00;;
76752;SDS011;65687;51.308;16.916;2023-03-14T16:39:51;10.10;;;5.80;;
76752;SDS011;65687;51.308;16.916;2023-03-14T16:44:53;13.40;;;7.90;;
76752;SDS011;65687;51.308;16.916;2023-03-14T16:49:54;12.40;;;6.70;;
76752;SDS011;65687;51.308;16.916;2023-03-14T16:54:55;19.50;;;8.80;;
76752;SDS011;65687;51.308;16.916;2023-03-14T16:59:56;24.00;;;10.90;;
76752;SDS011;65687;51.308;16.916;2023-03-14T17:04:57;26.90;;;10.70;;
76752;SDS011;65687;51.308;16.916;2023-03-14T17:09:57;32.30;;;13.50;;
76752;SDS011;65687;51.308;16.916;2023-03-14T17:14:58;27.50;;;12.90;;
76752;SDS011;65687;51.308;16.916;2023-03-14T17:20:00;22.50;;;11.80;;
76752;SDS011;65687;51.308;16.916;2023-03-14T17:25:02;23.40;;;12.40;;
76752;SDS011;65687;51.308;16.916;2023-03-14T17:30:03;15.00;;;7.50;;
76752;SDS011;65687;51.308;16.916;2023-03-14T17:35:05;38.40;;;18.40;;
76752;SDS011;65687;51.308;16.916;2023-03-14T17:40:06;35.20;;;17.00;;
76752;SDS011;65687;51.308;16.916;2023-03-14T17:45:08;21.60;;;12.50;;
76752;SDS011;65687;51.308;16.916;2023-03-14T17:50:10;19.80;;;9.70;;
76752;SDS011;65687;51.308;16.916;2023-03-14T17:55:11;26.00;;;15.60;;
76752;SDS011;65687;51.308;16.916;2023-03-14T18:00:12;18.30;;;9.90;;
76752;SDS011;65687;51.308;16.916;2023-03-14T18:05:14;18.90;;;10.10;;
76752;SDS011;65687;51.308;16.916;2023-03-14T18:10:15;20.70;;;10.80;;
76752;SDS011;65687;51.308;16.916;2023-03-14T18:15:16;25.40;;;12.10;;
76752;SDS011;65687;51.308;16.916;2023-03-14T18:20:18;21.10;;;11.30;;
76752;SDS011;65687;51.308;16.916;2023-03-14T18:25:18;27.90;;;13.60;;
76752;SDS011;65687;51.308;16.916;2023-03-14T18:30:20;23.70;;;10.30;;
76752;SDS011;65687;51.308;16.916;2023-03-14T18:35:21;19.00;;;9.50;;
76752;SDS011;65687;51.308;16.916;2023-03-14T18:40:22;19.80;;;8.50;;
76752;SDS011;65687;51.308;16.916;2023-03-14T18:45:23;14.10;;;7.30;;
76752;SDS011;65687;51.308;16.916;2023-03-14T18:50:24;14.20;;;8.00;;
76752;SDS011;65687;51.308;16.916;2023-03-14T18:55:25;15.70;;;8.70;;
76752;SDS011;65687;51.308;16.916;2023-03-14T19:00:26;16.50;;;9.50;;
76752;SDS011;65687;51.308;16.916;2023-03-14T19:05:27;18.40;;;9.40;;
76752;SDS011;65687;51.308;16.916;2023-03-14T19:10:29;25.40;;;12.00;;
76752;SDS011;65687;51.308;16.916;2023-03-14T19:15:33;27.20;;;14.20;;
76752;SDS011;65687;51.308;16.916;2023-03-14T19:20:34;22.50;;;10.50;;
76752;SDS011;65687;51.308;16.916;2023-03-14T19:25:34;17.90;;;9.60;;
76752;SDS011;65687;51.308;16.916;2023-03-14T19:30:35;8.70;;;5.00;;
76752;SDS011;65687;51.308;16.916;2023-03-14T19:35:36;5.00;;;3.10;;
76752;SDS011;65687;51.308;16.916;2023-03-14T19:40:38;5.90;;;3.30;;
76752;SDS011;65687;51.308;16.916;2023-03-14T19:45:40;5.50;;;2.70;;
76752;SDS011;65687;51.308;16.916;2023-03-14T19:50:42;4.20;;;2.50;;
76752;SDS011;65687;51.308;16.916;2023-03-14T19:55:43;7.10;;;3.20;;
76752;SDS011;65687;51.308;16.916;2023-03-14T20:00:46;5.60;;;2.50;;
76752;SDS011;65687;51.308;16.916;2023-03-14T20:05:48;5.00;;;2.30;;
76752;SDS011;65687;51.308;16.916;2023-03-14T20:10:49;3.70;;;1.80;;
76752;SDS011;65687;51.308;16.916;2023-03-14T20:15:50;2.20;;;1.30;;
76752;SDS011;65687;51.308;16.916;2023-03-14T20:20:52;2.80;;;1.60;;
76752;SDS011;65687;51.308;16.916;2023-03-14T20:25:54;4.60;;;2.30;;
76752;SDS011;65687;51.308;16.916;2023-03-14T20:30:55;2.60;;;1.80;;
76752;SDS011;65687;51.308;16.916;2023-03-14T20:35:57;3.10;;;1.90;;
76752;SDS011;65687;51.308;16.916;2023-03-14T20:41:00;2.50;;;1.20;;
76752;SDS011;65687;51.308;16.916;2023-03-14T20:46:04;5.90;;;2.80;;
76752;SDS011;65687;51.308;16.916;2023-03-14T20:51:05;3.40;;;1.70;;
76752;SDS011;65687;51.308;16.916;2023-03-14T20:56:06;2.30;;;1.60;;
76752;SDS011;65687;51.308;16.916;2023-03-14T21:01:07;2.50;;;1.30;;
76752;SDS011;65687;51.308;16.916;2023-03-14T21:06:08;5.90;;;2.70;;
76752;SDS011;65687;51.308;16.916;2023-03-14T21:11:11;2.00;;;1.10;;
76752;SDS011;65687;51.308;16.916;2023-03-14T21:16:11;5.40;;;2.30;;
76752;SDS011;65687;51.308;16.916;2023-03-14T21:21:12;7.50;;;3.70;;
76752;SDS011;65687;51.308;16.916;2023-03-14T21:26:13;18.80;;;6.80;;
76752;SDS011;65687;51.308;16.916;2023-03-14T21:31:14;17.00;;;6.70;;
76752;SDS011;65687;51.308;16.916;2023-03-14T21:36:15;8.30;;;3.10;;
76752;SDS011;65687;51.308;16.916;2023-03-14T21:41:17;8.10;;;3.60;;
76752;SDS011;65687;51.308;16.916;2023-03-14T21:46:18;7.30;;;2.70;;
76752;SDS011;65687;51.308;16.916;2023-03-14T21:51:19;2.80;;;2.00;;
76752;SDS011;65687;51.308;16.916;2023-03-14T21:56:20;4.70;;;2.70;;
76752;SDS011;65687;51.308;16.916;2023-03-14T22:01:21;5.60;;;3.00;;
76752;SDS011;65687;51.308;16.916;2023-03-14T22:06:22;5.60;;;2.50;;
76752;SDS011;65687;51.308;16.916;2023-03-14T22:11:23;4.60;;;2.50;;
76752;SDS011;65687;51.308;16.916;2023-03-14T22:16:24;6.00;;;2.10;;
76752;SDS011;65687;51.308;16.916;2023-03-14T22:21:25;3.90;;;2.10;;
76752;SDS011;65687;51.308;16.916;2023-03-14T22:26:26;6.60;;;3.50;;
76752;SDS011;65687;51.308;16.916;2023-03-14T22:31:27;5.70;;;3.00;;
76752;SDS011;65687;51.308;16.916;2023-03-14T22:36:27;7.50;;;3.70;;
76752;SDS011;65687;51.308;16.916;2023-03-14T22:41:28;10.70;;;3.80;;
76752;SDS011;65687;51.308;16.916;2023-03-14T22:46:29;6.20;;;3.30;;
76752;SDS011;65687;51.308;16.916;2023-03-14T22:51:30;10.40;;;4.20;;
76752;SDS011;65687;51.308;16.916;2023-03-14T22:56:31;5.30;;;2.90;;
76752;SDS011;65687;51.308;16.916;2023-03-14T23:01:31;8.60;;;3.60;;
76752;SDS011;65687;51.308;16.916;2023-03-14T23:06:32;7.70;;;3.80;;
76752;SDS011;65687;51.308;16.916;2023-03-14T23:11:33;9.70;;;3.30;;
76752;SDS011;65687;51.308;16.916;2023-03-14T23:16:35;9.00;;;3.90;;
76752;SDS011;65687;51.308;16.916;2023-03-14T23:21:36;5.30;;;2.40;;
76752;SDS011;65687;51.308;16.916;2023-03-14T23:26:37;8.20;;;4.10;;
76752;SDS011;65687;51.308;16.916;2023-03-14T23:31:38;10.10;;;5.30;;
76752;SDS011;65687;51.308;16.916;2023-03-14T23:36:40;9.10;;;4.00;;
76752;SDS011;65687;51.308;16.916;2023-03-14T23:41:41;9.30;;;4.40;;
76752;SDS011;65687;51.308;16.916;2023-03-14T23:46:42;8.00;;;3.00;;
76752;SDS011;65687;51.308;16.916;2023-03-14T23:51:42;10.60;;;3.70;;
76752;SDS011;65687;51.308;16.916;2023-03-14T23:56:43;10.40;;;3.90;;
